sensor_id;sensor_type;location;lat;lon;timestamp;pressure;altitude;pressure_sealevel;temperature;humidity
63181;BME280;49273;37.772;-122.432;2022-08-19T00:01:58;100685.52;;;18.97;75.62
63181;BME280;49273;37.772;-122.432;2022-08-19T00:04:28;100681.04;;;19.10;75.61
63181;BME280;49273;37.772;-122.432;2022-08-19T00:06:56;100681.40;;;18.88;75.88
63181;BME280;49273;37.772;-122.432;2022-08-19T00:09:25;100692.21;;;19.16;74.74
63181;BME280;49273;37.772;-122.432;2022-08-19T00:11:55;100691.45;;;18.79;76.94
63181;BME280;49273;37.772;-122.432;2022-08-19T00:14:25;100699.06;;;18.96;76.35
63181;BME280;49273;37.772;-122.432;2022-08-19T00:16:53;100700.01;;;19.05;76.56
63181;BME280;49273;37.772;-122.432;2022-08-19T00:19:22;100700.47;;;19.02;76.57
63181;BME280;49273;37.772;-122.432;2022-08-19T00:21:51;100702.13;;;18.64;78.55
63181;BME280;49273;37.772;-122.432;2022-08-19T00:24:19;100708.62;;;18.70;78.41
63181;BME280;49273;37.772;-122.432;2022-08-19T00:26:48;100708.13;;;19.07;76.98
63181;BME280;49273;37.772;-122.432;2022-08-19T00:29:19;100712.51;;;18.98;77.36
63181;BME280;49273;37.772;-122.432;2022-08-19T00:31:47;100706.92;;;18.90;78.03
63181;BME280;49273;37.772;-122.432;2022-08-19T00:34:15;100709.98;;;18.98;78.02
63181;BME280;49273;37.772;-122.432;2022-08-19T00:36:43;100709.33;;;18.68;79.64
63181;BME280;49273;37.772;-122.432;2022-08-19T00:39:12;100705.37;;;18.83;78.54
63181;BME280;49273;37.772;-122.432;2022-08-19T00:41:41;100707.88;;;18.41;80.72
63181;BME280;49273;37.772;-122.432;2022-08-19T00:44:13;100720.16;;;18.70;79.97
63181;BME280;49273;37.772;-122.432;2022-08-19T00:46:44;100718.32;;;18.68;80.32
63181;BME280;49273;37.772;-122.432;2022-08-19T00:49:15;100724.04;;;18.52;80.89
63181;BME280;49273;37.772;-122.432;2022-08-19T00:51:47;100722.32;;;18.63;80.30
63181;BME280;49273;37.772;-122.432;2022-08-19T00:54:17;100718.62;;;18.69;80.05
63181;BME280;49273;37.772;-122.432;2022-08-19T00:56:46;100727.19;;;18.67;79.84
63181;BME280;49273;37.772;-122.432;2022-08-19T00:59:16;100715.59;;;18.35;81.42
63181;BME280;49273;37.772;-122.432;2022-08-19T01:01:46;100723.59;;;18.37;81.54
63181;BME280;49273;37.772;-122.432;2022-08-19T01:04:14;100720.70;;;18.33;81.93
63181;BME280;49273;37.772;-122.432;2022-08-19T01:06:42;100741.60;;;18.22;82.25
63181;BME280;49273;37.772;-122.432;2022-08-19T01:09:10;100739.14;;;18.59;80.65
63181;BME280;49273;37.772;-122.432;2022-08-19T01:11:41;100735.16;;;18.30;81.73
63181;BME280;49273;37.772;-122.432;2022-08-19T01:14:12;100739.29;;;18.29;82.27
63181;BME280;49273;37.772;-122.432;2022-08-19T01:16:42;100730.51;;;18.18;82.84
63181;BME280;49273;37.772;-122.432;2022-08-19T01:19:16;100716.91;;;18.35;81.86
63181;BME280;49273;37.772;-122.432;2022-08-19T01:21:52;100721.99;;;18.32;82.28
63181;BME280;49273;37.772;-122.432;2022-08-19T01:24:23;100720.05;;;18.34;82.17
63181;BME280;49273;37.772;-122.432;2022-08-19T01:26:52;100716.22;;;18.11;82.96
63181;BME280;49273;37.772;-122.432;2022-08-19T01:29:20;100709.30;;;18.14;83.16
63181;BME280;49273;37.772;-122.432;2022-08-19T01:31:50;100710.41;;;18.00;83.88
63181;BME280;49273;37.772;-122.432;2022-08-19T01:34:18;100699.17;;;17.57;86.03
63181;BME280;49273;37.772;-122.432;2022-08-19T01:36:48;100693.59;;;17.68;85.99
63181;BME280;49273;37.772;-122.432;2022-08-19T01:39:21;100698.92;;;17.74;85.44
63181;BME280;49273;37.772;-122.432;2022-08-19T01:41:51;100698.83;;;17.60;85.79
63181;BME280;49273;37.772;-122.432;2022-08-19T01:44:19;100700.09;;;17.56;86.74
63181;BME280;49273;37.772;-122.432;2022-08-19T01:46:49;100707.08;;;17.84;85.77
63181;BME280;49273;37.772;-122.432;2022-08-19T01:49:19;100706.22;;;17.46;86.76
63181;BME280;49273;37.772;-122.432;2022-08-19T01:51:48;100699.64;;;17.66;87.03
63181;BME280;49273;37.772;-122.432;2022-08-19T01:54:18;100701.89;;;17.56;87.34
63181;BME280;49273;37.772;-122.432;2022-08-19T01:56:46;100703.13;;;17.46;87.57
63181;BME280;49273;37.772;-122.432;2022-08-19T01:59:18;100705.93;;;17.63;86.91
63181;BME280;49273;37.772;-122.432;2022-08-19T02:01:47;100706.22;;;17.64;86.71
63181;BME280;49273;37.772;-122.432;2022-08-19T02:04:15;100706.40;;;17.51;87.51
63181;BME280;49273;37.772;-122.432;2022-08-19T02:06:42;100708.03;;;17.49;87.60
63181;BME280;49273;37.772;-122.432;2022-08-19T02:09:10;100714.65;;;17.36;88.72
63181;BME280;49273;37.772;-122.432;2022-08-19T02:11:38;100715.51;;;17.35;88.42
63181;BME280;49273;37.772;-122.432;2022-08-19T02:14:08;100720.56;;;17.32;88.72
63181;BME280;49273;37.772;-122.432;2022-08-19T02:16:37;100721.24;;;17.34;88.48
63181;BME280;49273;37.772;-122.432;2022-08-19T02:19:05;100712.54;;;17.53;87.60
63181;BME280;49273;37.772;-122.432;2022-08-19T02:21:33;100717.65;;;17.39;88.89
63181;BME280;49273;37.772;-122.432;2022-08-19T02:24:02;100715.99;;;17.34;88.27
63181;BME280;49273;37.772;-122.432;2022-08-19T02:26:31;100710.96;;;17.29;88.48
63181;BME280;49273;37.772;-122.432;2022-08-19T02:28:59;100721.23;;;17.36;88.28
63181;BME280;49273;37.772;-122.432;2022-08-19T02:31:28;100723.76;;;17.25;88.56
63181;BME280;49273;37.772;-122.432;2022-08-19T02:33:56;100718.15;;;16.92;89.46
63181;BME280;49273;37.772;-122.432;2022-08-19T02:36:25;100728.92;;;17.29;88.42
63181;BME280;49273;37.772;-122.432;2022-08-19T02:38:54;100725.32;;;17.31;87.45
63181;BME280;49273;37.772;-122.432;2022-08-19T02:41:24;100730.04;;;17.34;87.93
63181;BME280;49273;37.772;-122.432;2022-08-19T02:43:53;100729.58;;;17.22;86.94
63181;BME280;49273;37.772;-122.432;2022-08-19T02:46:24;100732.70;;;17.35;87.22
63181;BME280;49273;37.772;-122.432;2022-08-19T02:48:56;100734.30;;;17.42;86.29
63181;BME280;49273;37.772;-122.432;2022-08-19T02:51:28;100737.18;;;17.40;86.59
63181;BME280;49273;37.772;-122.432;2022-08-19T02:53:56;100734.57;;;17.38;86.28
63181;BME280;49273;37.772;-122.432;2022-08-19T02:56:24;100731.10;;;17.20;87.74
63181;BME280;49273;37.772;-122.432;2022-08-19T02:58:54;100731.16;;;17.06;88.31
63181;BME280;49273;37.772;-122.432;2022-08-19T03:01:25;100731.53;;;17.09;88.35
63181;BME280;49273;37.772;-122.432;2022-08-19T03:03:54;100737.43;;;17.08;88.89
63181;BME280;49273;37.772;-122.432;2022-08-19T03:06:22;100740.85;;;16.92;89.45
63181;BME280;49273;37.772;-122.432;2022-08-19T03:08:52;100737.92;;;16.64;91.04
63181;BME280;49273;37.772;-122.432;2022-08-19T03:11:22;100738.60;;;16.79;91.32
63181;BME280;49273;37.772;-122.432;2022-08-19T03:13:52;100730.88;;;16.62;92.40
63181;BME280;49273;37.772;-122.432;2022-08-19T03:16:22;100733.71;;;16.82;91.07
63181;BME280;49273;37.772;-122.432;2022-08-19T03:18:52;100740.62;;;16.62;92.95
63181;BME280;49273;37.772;-122.432;2022-08-19T03:21:23;100747.74;;;16.73;92.58
63181;BME280;49273;37.772;-122.432;2022-08-19T03:23:54;100749.30;;;16.61;92.75
63181;BME280;49273;37.772;-122.432;2022-08-19T03:26:23;100746.98;;;16.70;92.34
63181;BME280;49273;37.772;-122.432;2022-08-19T03:28:52;100741.09;;;16.54;93.12
63181;BME280;49273;37.772;-122.432;2022-08-19T03:31:21;100744.22;;;16.66;93.35
63181;BME280;49273;37.772;-122.432;2022-08-19T03:33:51;100747.61;;;16.62;93.24
63181;BME280;49273;37.772;-122.432;2022-08-19T03:36:22;100745.14;;;16.71;91.92
63181;BME280;49273;37.772;-122.432;2022-08-19T03:38:53;100744.40;;;16.76;92.47
63181;BME280;49273;37.772;-122.432;2022-08-19T03:41:24;100745.69;;;16.65;92.61
63181;BME280;49273;37.772;-122.432;2022-08-19T03:43:54;100742.15;;;16.40;93.26
63181;BME280;49273;37.772;-122.432;2022-08-19T03:46:24;100740.28;;;16.54;93.75
63181;BME280;49273;37.772;-122.432;2022-08-19T03:48:56;100739.64;;;16.42;93.57
63181;BME280;49273;37.772;-122.432;2022-08-19T03:51:26;100752.14;;;16.57;93.22
63181;BME280;49273;37.772;-122.432;2022-08-19T03:53:56;100761.27;;;16.37;93.39
63181;BME280;49273;37.772;-122.432;2022-08-19T03:56:26;100764.97;;;16.76;91.97
63181;BME280;49273;37.772;-122.432;2022-08-19T03:58:56;100767.28;;;16.50;93.38
63181;BME280;49273;37.772;-122.432;2022-08-19T04:01:26;100767.68;;;16.38;93.77
63181;BME280;49273;37.772;-122.432;2022-08-19T04:03:56;100775.49;;;16.48;93.78
63181;BME280;49273;37.772;-122.432;2022-08-19T04:06:28;100772.78;;;16.38;94.07
63181;BME280;49273;37.772;-122.432;2022-08-19T04:08:59;100767.77;;;16.58;93.66
63181;BME280;49273;37.772;-122.432;2022-08-19T04:11:29;100768.23;;;16.57;92.98
63181;BME280;49273;37.772;-122.432;2022-08-19T04:13:58;100767.31;;;16.57;92.68
63181;BME280;49273;37.772;-122.432;2022-08-19T04:16:28;100773.74;;;16.50;93.19
63181;BME280;49273;37.772;-122.432;2022-08-19T04:18:59;100771.53;;;16.54;92.94
63181;BME280;49273;37.772;-122.432;2022-08-19T04:21:28;100777.85;;;16.56;92.82
63181;BME280;49273;37.772;-122.432;2022-08-19T04:23:57;100784.80;;;16.55;93.14
63181;BME280;49273;37.772;-122.432;2022-08-19T04:26:28;100786.83;;;16.77;91.85
63181;BME280;49273;37.772;-122.432;2022-08-19T04:28:57;100790.05;;;16.85;91.37
63181;BME280;49273;37.772;-122.432;2022-08-19T04:31:29;100782.79;;;16.67;91.73
63181;BME280;49273;37.772;-122.432;2022-08-19T04:33:59;100787.82;;;16.62;92.28
63181;BME280;49273;37.772;-122.432;2022-08-19T04:36:30;100789.30;;;16.49;92.90
63181;BME280;49273;37.772;-122.432;2022-08-19T04:39:00;100792.38;;;16.31;93.41
63181;BME280;49273;37.772;-122.432;2022-08-19T04:41:29;100787.25;;;16.25;93.62
63181;BME280;49273;37.772;-122.432;2022-08-19T04:43:57;100792.17;;;16.52;93.10
63181;BME280;49273;37.772;-122.432;2022-08-19T04:46:25;100784.52;;;16.49;93.58
63181;BME280;49273;37.772;-122.432;2022-08-19T04:48:53;100782.08;;;16.49;92.58
63181;BME280;49273;37.772;-122.432;2022-08-19T04:51:22;100774.52;;;16.46;92.78
63181;BME280;49273;37.772;-122.432;2022-08-19T04:53:51;100775.78;;;16.29;93.93
63181;BME280;49273;37.772;-122.432;2022-08-19T04:56:20;100778.35;;;16.40;93.48
63181;BME280;49273;37.772;-122.432;2022-08-19T04:58:49;100763.61;;;16.19;94.59
63181;BME280;49273;37.772;-122.432;2022-08-19T05:01:20;100760.00;;;16.35;93.82
63181;BME280;49273;37.772;-122.432;2022-08-19T05:03:50;100759.25;;;16.35;93.65
63181;BME280;49273;37.772;-122.432;2022-08-19T05:06:20;100760.22;;;16.20;94.75
63181;BME280;49273;37.772;-122.432;2022-08-19T05:08:49;100756.37;;;16.37;94.14
63181;BME280;49273;37.772;-122.432;2022-08-19T05:11:24;100761.30;;;16.09;95.23
63181;BME280;49273;37.772;-122.432;2022-08-19T05:13:53;100752.47;;;16.19;95.17
63181;BME280;49273;37.772;-122.432;2022-08-19T05:16:22;100753.49;;;16.08;95.32
63181;BME280;49273;37.772;-122.432;2022-08-19T05:18:51;100754.20;;;16.20;94.96
63181;BME280;49273;37.772;-122.432;2022-08-19T05:21:21;100756.41;;;16.29;94.88
63181;BME280;49273;37.772;-122.432;2022-08-19T05:23:49;100749.19;;;16.32;95.28
63181;BME280;49273;37.772;-122.432;2022-08-19T05:26:18;100753.59;;;16.12;95.48
63181;BME280;49273;37.772;-122.432;2022-08-19T05:28:46;100753.56;;;16.13;95.50
63181;BME280;49273;37.772;-122.432;2022-08-19T05:31:13;100752.88;;;16.15;94.66
63181;BME280;49273;37.772;-122.432;2022-08-19T05:33:42;100751.59;;;16.42;93.36
63181;BME280;49273;37.772;-122.432;2022-08-19T05:36:09;100752.49;;;16.23;93.70
63181;BME280;49273;37.772;-122.432;2022-08-19T05:38:37;100754.80;;;16.41;93.42
63181;BME280;49273;37.772;-122.432;2022-08-19T05:41:08;100754.84;;;16.56;92.48
63181;BME280;49273;37.772;-122.432;2022-08-19T05:43:36;100760.30;;;16.43;92.20
63181;BME280;49273;37.772;-122.432;2022-08-19T05:46:05;100762.85;;;16.16;93.93
63181;BME280;49273;37.772;-122.432;2022-08-19T05:48:34;100761.89;;;16.34;93.24
63181;BME280;49273;37.772;-122.432;2022-08-19T05:51:05;100759.60;;;16.39;93.10
63181;BME280;49273;37.772;-122.432;2022-08-19T05:53:33;100756.83;;;16.46;92.65
63181;BME280;49273;37.772;-122.432;2022-08-19T05:56:04;100756.58;;;16.39;92.22
63181;BME280;49273;37.772;-122.432;2022-08-19T05:58:33;100758.73;;;16.16;93.58
63181;BME280;49273;37.772;-122.432;2022-08-19T06:01:02;100758.96;;;16.28;92.24
63181;BME280;49273;37.772;-122.432;2022-08-19T06:03:32;100756.82;;;16.27;91.80
63181;BME280;49273;37.772;-122.432;2022-08-19T06:06:00;100756.58;;;16.40;91.64
63181;BME280;49273;37.772;-122.432;2022-08-19T06:08:28;100756.19;;;16.33;91.38
63181;BME280;49273;37.772;-122.432;2022-08-19T06:10:56;100753.27;;;16.10;92.28
63181;BME280;49273;37.772;-122.432;2022-08-19T06:13:25;100752.93;;;16.32;91.73
63181;BME280;49273;37.772;-122.432;2022-08-19T06:15:53;100749.47;;;16.48;91.01
63181;BME280;49273;37.772;-122.432;2022-08-19T06:18:21;100748.83;;;16.45;90.83
63181;BME280;49273;37.772;-122.432;2022-08-19T06:20:49;100748.26;;;16.35;91.12
63181;BME280;49273;37.772;-122.432;2022-08-19T06:23:18;100750.84;;;16.38;91.17
63181;BME280;49273;37.772;-122.432;2022-08-19T06:25:47;100750.10;;;16.41;91.18
63181;BME280;49273;37.772;-122.432;2022-08-19T06:28:14;100751.93;;;16.17;91.85
63181;BME280;49273;37.772;-122.432;2022-08-19T06:30:43;100752.39;;;16.39;91.07
63181;BME280;49273;37.772;-122.432;2022-08-19T06:33:11;100753.11;;;16.00;92.85
63181;BME280;49273;37.772;-122.432;2022-08-19T06:35:40;100756.14;;;16.09;92.85
63181;BME280;49273;37.772;-122.432;2022-08-19T06:38:08;100754.19;;;16.07;92.84
63181;BME280;49273;37.772;-122.432;2022-08-19T06:40:36;100747.70;;;15.97;92.63
63181;BME280;49273;37.772;-122.432;2022-08-19T06:43:04;100749.48;;;16.15;91.92
63181;BME280;49273;37.772;-122.432;2022-08-19T06:45:31;100748.75;;;16.07;91.93
63181;BME280;49273;37.772;-122.432;2022-08-19T06:48:00;100746.97;;;16.34;90.65
63181;BME280;49273;37.772;-122.432;2022-08-19T06:50:28;100743.91;;;16.19;91.21
63181;BME280;49273;37.772;-122.432;2022-08-19T06:52:56;100737.33;;;16.32;90.55
63181;BME280;49273;37.772;-122.432;2022-08-19T06:55:24;100734.95;;;16.14;91.19
63181;BME280;49273;37.772;-122.432;2022-08-19T06:57:52;100732.77;;;16.18;90.98
63181;BME280;49273;37.772;-122.432;2022-08-19T07:00:20;100730.21;;;16.30;90.77
63181;BME280;49273;37.772;-122.432;2022-08-19T07:02:49;100725.73;;;16.37;90.39
63181;BME280;49273;37.772;-122.432;2022-08-19T07:05:17;100727.57;;;16.20;90.75
63181;BME280;49273;37.772;-122.432;2022-08-19T07:07:45;100727.63;;;16.32;90.64
63181;BME280;49273;37.772;-122.432;2022-08-19T07:10:13;100724.01;;;16.37;90.15
63181;BME280;49273;37.772;-122.432;2022-08-19T07:12:41;100722.37;;;16.40;89.14
63181;BME280;49273;37.772;-122.432;2022-08-19T07:15:10;100725.36;;;16.47;88.57
63181;BME280;49273;37.772;-122.432;2022-08-19T07:17:38;100723.91;;;16.38;89.06
63181;BME280;49273;37.772;-122.432;2022-08-19T07:20:08;100722.63;;;16.39;89.33
63181;BME280;49273;37.772;-122.432;2022-08-19T07:22:37;100728.27;;;16.50;88.56
63181;BME280;49273;37.772;-122.432;2022-08-19T07:25:07;100725.08;;;16.55;88.26
63181;BME280;49273;37.772;-122.432;2022-08-19T07:27:36;100723.13;;;16.66;87.36
63181;BME280;49273;37.772;-122.432;2022-08-19T07:30:05;100724.65;;;16.48;87.71
63181;BME280;49273;37.772;-122.432;2022-08-19T07:32:33;100726.90;;;16.59;87.62
63181;BME280;49273;37.772;-122.432;2022-08-19T07:35:01;100724.97;;;16.41;88.25
63181;BME280;49273;37.772;-122.432;2022-08-19T07:37:28;100737.75;;;16.57;87.85
63181;BME280;49273;37.772;-122.432;2022-08-19T07:39:56;100737.53;;;16.48;87.80
63181;BME280;49273;37.772;-122.432;2022-08-19T07:42:24;100733.41;;;16.53;87.05
63181;BME280;49273;37.772;-122.432;2022-08-19T07:44:53;100733.47;;;16.56;86.99
63181;BME280;49273;37.772;-122.432;2022-08-19T07:47:21;100736.87;;;16.32;88.17
63181;BME280;49273;37.772;-122.432;2022-08-19T07:49:49;100735.76;;;16.18;89.28
63181;BME280;49273;37.772;-122.432;2022-08-19T07:52:17;100732.19;;;16.16;89.59
63181;BME280;49273;37.772;-122.432;2022-08-19T07:54:45;100732.70;;;16.28;89.04
63181;BME280;49273;37.772;-122.432;2022-08-19T07:57:13;100728.49;;;16.12;90.17
63181;BME280;49273;37.772;-122.432;2022-08-19T07:59:41;100732.93;;;16.19;90.20
63181;BME280;49273;37.772;-122.432;2022-08-19T08:02:09;100731.70;;;16.01;90.86
63181;BME280;49273;37.772;-122.432;2022-08-19T08:04:37;100725.87;;;16.23;90.11
63181;BME280;49273;37.772;-122.432;2022-08-19T08:07:07;100718.52;;;15.87;91.45
63181;BME280;49273;37.772;-122.432;2022-08-19T08:09:38;100718.99;;;16.11;90.91
63181;BME280;49273;37.772;-122.432;2022-08-19T08:12:09;100714.95;;;16.09;90.69
63181;BME280;49273;37.772;-122.432;2022-08-19T08:14:43;100716.95;;;15.85;91.54
63181;BME280;49273;37.772;-122.432;2022-08-19T08:17:13;100710.82;;;15.98;90.60
63181;BME280;49273;37.772;-122.432;2022-08-19T08:19:41;100707.33;;;16.02;90.95
63181;BME280;49273;37.772;-122.432;2022-08-19T08:22:11;100705.25;;;16.09;90.81
63181;BME280;49273;37.772;-122.432;2022-08-19T08:24:40;100702.76;;;15.93;91.59
63181;BME280;49273;37.772;-122.432;2022-08-19T08:27:08;100704.34;;;16.10;90.37
63181;BME280;49273;37.772;-122.432;2022-08-19T08:29:35;100703.61;;;16.00;90.64
63181;BME280;49273;37.772;-122.432;2022-08-19T08:32:03;100699.29;;;15.99;90.97
63181;BME280;49273;37.772;-122.432;2022-08-19T08:34:32;100700.20;;;16.10;90.01
63181;BME280;49273;37.772;-122.432;2022-08-19T08:37:00;100695.99;;;16.19;89.76
63181;BME280;49273;37.772;-122.432;2022-08-19T08:39:27;100692.89;;;16.16;89.09
63181;BME280;49273;37.772;-122.432;2022-08-19T08:42:04;100694.69;;;16.13;89.32
63181;BME280;49273;37.772;-122.432;2022-08-19T08:44:46;100691.07;;;16.02;90.06
63181;BME280;49273;37.772;-122.432;2022-08-19T08:47:19;100686.27;;;15.99;89.58
63181;BME280;49273;37.772;-122.432;2022-08-19T08:49:52;100685.50;;;15.97;90.33
63181;BME280;49273;37.772;-122.432;2022-08-19T08:52:25;100684.07;;;15.84;90.80
63181;BME280;49273;37.772;-122.432;2022-08-19T08:54:55;100687.50;;;15.74;90.98
63181;BME280;49273;37.772;-122.432;2022-08-19T08:57:30;100688.08;;;15.84;90.34
63181;BME280;49273;37.772;-122.432;2022-08-19T09:00:06;100689.39;;;16.01;89.66
63181;BME280;49273;37.772;-122.432;2022-08-19T09:02:34;100692.72;;;15.80;89.49
63181;BME280;49273;37.772;-122.432;2022-08-19T09:05:02;100685.26;;;15.84;89.74
63181;BME280;49273;37.772;-122.432;2022-08-19T09:07:41;100680.67;;;16.05;89.33
63181;BME280;49273;37.772;-122.432;2022-08-19T09:10:19;100677.15;;;15.79;89.68
63181;BME280;49273;37.772;-122.432;2022-08-19T09:12:55;100675.07;;;16.09;89.08
63181;BME280;49273;37.772;-122.432;2022-08-19T09:15:31;100673.59;;;16.13;88.73
63181;BME280;49273;37.772;-122.432;2022-08-19T09:18:02;100673.31;;;16.02;89.23
63181;BME280;49273;37.772;-122.432;2022-08-19T09:20:31;100679.14;;;15.79;89.83
63181;BME280;49273;37.772;-122.432;2022-08-19T09:22:59;100673.33;;;15.95;89.10
63181;BME280;49273;37.772;-122.432;2022-08-19T09:25:27;100670.91;;;15.67;89.59
63181;BME280;49273;37.772;-122.432;2022-08-19T09:27:55;100672.44;;;15.64;89.77
63181;BME280;49273;37.772;-122.432;2022-08-19T09:30:26;100665.65;;;15.82;89.67
63181;BME280;49273;37.772;-122.432;2022-08-19T09:32:54;100661.65;;;15.53;90.50
63181;BME280;49273;37.772;-122.432;2022-08-19T09:35:25;100660.53;;;15.65;90.05
63181;BME280;49273;37.772;-122.432;2022-08-19T09:37:54;100657.75;;;15.38;91.33
63181;BME280;49273;37.772;-122.432;2022-08-19T09:40:22;100651.64;;;15.52;90.48
63181;BME280;49273;37.772;-122.432;2022-08-19T09:42:50;100654.37;;;15.73;90.25
63181;BME280;49273;37.772;-122.432;2022-08-19T09:45:20;100656.07;;;15.88;89.82
63181;BME280;49273;37.772;-122.432;2022-08-19T09:47:50;100657.45;;;15.82;89.60
63181;BME280;49273;37.772;-122.432;2022-08-19T09:50:18;100655.86;;;15.78;89.86
63181;BME280;49273;37.772;-122.432;2022-08-19T09:52:46;100655.43;;;15.78;90.13
63181;BME280;49273;37.772;-122.432;2022-08-19T09:55:15;100647.71;;;15.84;90.14
63181;BME280;49273;37.772;-122.432;2022-08-19T09:57:42;100644.61;;;15.94;90.08
63181;BME280;49273;37.772;-122.432;2022-08-19T10:00:11;100642.80;;;15.61;91.50
63181;BME280;49273;37.772;-122.432;2022-08-19T10:02:39;100639.28;;;15.79;91.31
63181;BME280;49273;37.772;-122.432;2022-08-19T10:05:07;100645.92;;;15.73;91.33
63181;BME280;49273;37.772;-122.432;2022-08-19T10:07:36;100641.15;;;15.82;90.98
63181;BME280;49273;37.772;-122.432;2022-08-19T10:10:06;100645.99;;;15.62;91.95
63181;BME280;49273;37.772;-122.432;2022-08-19T10:12:34;100646.99;;;15.51;92.80
63181;BME280;49273;37.772;-122.432;2022-08-19T10:15:04;100643.64;;;15.38;93.82
63181;BME280;49273;37.772;-122.432;2022-08-19T10:17:33;100639.13;;;15.40;93.31
63181;BME280;49273;37.772;-122.432;2022-08-19T10:20:01;100637.76;;;15.51;93.43
63181;BME280;49273;37.772;-122.432;2022-08-19T10:22:30;100636.13;;;15.24;94.16
63181;BME280;49273;37.772;-122.432;2022-08-19T10:24:57;100642.37;;;15.54;93.14
63181;BME280;49273;37.772;-122.432;2022-08-19T10:27:25;100644.31;;;15.45;93.41
63181;BME280;49273;37.772;-122.432;2022-08-19T10:29:53;100637.79;;;15.29;93.73
63181;BME280;49273;37.772;-122.432;2022-08-19T10:32:21;100647.08;;;15.48;94.00
63181;BME280;49273;37.772;-122.432;2022-08-19T10:34:50;100643.76;;;15.68;92.74
63181;BME280;49273;37.772;-122.432;2022-08-19T10:37:18;100639.83;;;15.48;93.93
63181;BME280;49273;37.772;-122.432;2022-08-19T10:39:46;100634.75;;;15.22;94.68
63181;BME280;49273;37.772;-122.432;2022-08-19T10:42:15;100634.67;;;15.14;95.97
63181;BME280;49273;37.772;-122.432;2022-08-19T10:44:42;100629.05;;;15.22;95.63
63181;BME280;49273;37.772;-122.432;2022-08-19T10:47:11;100630.49;;;15.24;94.88
63181;BME280;49273;37.772;-122.432;2022-08-19T10:49:39;100622.63;;;15.28;95.00
63181;BME280;49273;37.772;-122.432;2022-08-19T10:52:07;100622.75;;;15.27;95.26
63181;BME280;49273;37.772;-122.432;2022-08-19T10:54:35;100615.84;;;15.21;95.51
63181;BME280;49273;37.772;-122.432;2022-08-19T10:57:03;100617.80;;;15.42;94.49
63181;BME280;49273;37.772;-122.432;2022-08-19T10:59:30;100611.40;;;15.51;93.24
63181;BME280;49273;37.772;-122.432;2022-08-19T11:02:00;100617.35;;;15.57;92.62
63181;BME280;49273;37.772;-122.432;2022-08-19T11:04:29;100616.01;;;15.62;91.95
63181;BME280;49273;37.772;-122.432;2022-08-19T11:06:56;100617.44;;;15.53;91.91
63181;BME280;49273;37.772;-122.432;2022-08-19T11:09:26;100617.81;;;15.77;90.86
63181;BME280;49273;37.772;-122.432;2022-08-19T11:11:54;100614.09;;;15.87;90.47
63181;BME280;49273;37.772;-122.432;2022-08-19T11:14:24;100611.16;;;15.83;90.34
63181;BME280;49273;37.772;-122.432;2022-08-19T11:16:53;100609.85;;;15.94;89.89
63181;BME280;49273;37.772;-122.432;2022-08-19T11:19:21;100608.73;;;15.85;90.78
63181;BME280;49273;37.772;-122.432;2022-08-19T11:21:49;100608.11;;;15.23;92.72
63181;BME280;49273;37.772;-122.432;2022-08-19T11:24:20;100611.53;;;15.51;92.83
63181;BME280;49273;37.772;-122.432;2022-08-19T11:26:51;100617.83;;;15.56;92.21
63181;BME280;49273;37.772;-122.432;2022-08-19T11:29:21;100621.47;;;15.77;91.03
63181;BME280;49273;37.772;-122.432;2022-08-19T11:31:50;100614.76;;;15.44;91.50
63181;BME280;49273;37.772;-122.432;2022-08-19T11:34:20;100617.72;;;15.52;91.39
63181;BME280;49273;37.772;-122.432;2022-08-19T11:36:50;100609.01;;;15.60;91.15
63181;BME280;49273;37.772;-122.432;2022-08-19T11:39:21;100609.13;;;15.35;91.89
63181;BME280;49273;37.772;-122.432;2022-08-19T11:41:50;100605.38;;;15.35;92.53
63181;BME280;49273;37.772;-122.432;2022-08-19T11:44:18;100606.71;;;15.45;92.17
63181;BME280;49273;37.772;-122.432;2022-08-19T11:46:46;100607.20;;;15.32;92.41
63181;BME280;49273;37.772;-122.432;2022-08-19T11:49:15;100605.50;;;15.42;92.29
63181;BME280;49273;37.772;-122.432;2022-08-19T11:51:44;100603.32;;;15.45;92.33
63181;BME280;49273;37.772;-122.432;2022-08-19T11:54:14;100605.46;;;15.32;92.42
63181;BME280;49273;37.772;-122.432;2022-08-19T11:56:42;100599.62;;;15.25;92.67
63181;BME280;49273;37.772;-122.432;2022-08-19T11:59:10;100604.43;;;15.34;91.78
63181;BME280;49273;37.772;-122.432;2022-08-19T12:01:38;100599.39;;;15.60;91.40
63181;BME280;49273;37.772;-122.432;2022-08-19T12:04:06;100598.66;;;15.35;91.96
63181;BME280;49273;37.772;-122.432;2022-08-19T12:06:38;100605.15;;;15.33;91.57
63181;BME280;49273;37.772;-122.432;2022-08-19T12:09:09;100605.55;;;15.25;91.92
63181;BME280;49273;37.772;-122.432;2022-08-19T12:11:38;100605.48;;;15.15;92.33
63181;BME280;49273;37.772;-122.432;2022-08-19T12:14:06;100610.89;;;15.48;90.83
63181;BME280;49273;37.772;-122.432;2022-08-19T12:16:37;100609.68;;;15.54;90.34
63181;BME280;49273;37.772;-122.432;2022-08-19T12:19:05;100612.88;;;15.18;91.16
63181;BME280;49273;37.772;-122.432;2022-08-19T12:21:35;100608.83;;;15.36;90.85
63181;BME280;49273;37.772;-122.432;2022-08-19T12:24:05;100606.10;;;15.41;90.71
63181;BME280;49273;37.772;-122.432;2022-08-19T12:26:33;100604.85;;;15.53;89.37
63181;BME280;49273;37.772;-122.432;2022-08-19T12:29:02;100602.96;;;15.49;89.14
63181;BME280;49273;37.772;-122.432;2022-08-19T12:31:31;100602.57;;;15.59;88.64